South Woodstock, Connecticut
Current Conditions -  °F | °C
As of 5:52 AM on Saturday 22 Nov 2014 (Local Time) from KIJD Reporting Station
Clear Clear  
Wind Chill: 16°   Ceiling: Unl
Heat Index: 16°   Visibility: 10mi
Dew Point: 11°   Wind: 0mph
Humidity: 81%   Direction: NA
Pressure: 30.45"   Gusts: NA
Location:  41.93°N, 71.96°W
Report Text: KIJD 221052Z AUTO 00000KT 10SM CLR M09/M12 A3045 RMK AO2 SLP313 T10891117
Loading
Personal Weather Stations






























Interactive Weather Map New forecast layout! Learn more

10-Day Weather Forecast

Advertisements
Track Severe Weather on mobile